Time;durP1;ratioP1;P1;durP2;ratioP2;P2;SDS_P1;SDS_P2;PMS_P1;PMS_P2;Temp;Humidity;BMP_temperature;BMP_pressure;BME280_temperature;BME280_humidity;BME280_pressure;Samples;Min_cycle;Max_cycle;Signal;HPM_P1;HPM_P2
2022/10/14 00:00:39;;;;;;;9.40;6.20;;;;;;;;;;5098664;28;20317;-66
2022/10/14 00:03:07;;;;;;;10.43;6.37;;;;;;;;;;5097831;28;20667;-64
2022/10/14 00:05:39;;;;;;;7.70;5.97;;;;;;;;;;5098710;28;20226;-65
2022/10/14 00:08:08;;;;;;;8.77;6.27;;;;;;;;;;5098387;28;20205;-65
2022/10/14 00:10:39;;;;;;;8.10;5.90;;;;;;;;;;5098294;28;20297;-64
2022/10/14 00:13:07;;;;;;;7.20;4.87;;;;;;;;;;5098455;28;20213;-66
2022/10/14 00:15:40;;;;;;;8.87;5.13;;;;;;;;;;5098284;28;20218;-66
2022/10/14 00:18:08;;;;;;;7.37;4.20;;;;;;;;;;5098299;28;20214;-64
2022/10/14 00:20:36;;;;;;;6.23;4.83;;;;;;;;;;5098257;28;20701;-65
2022/10/14 00:23:04;;;;;;;8.70;4.50;;;;;;;;;;5098230;28;20215;-65
2022/10/14 00:25:36;;;;;;;9.50;5.13;;;;;;;;;;5097900;28;20675;-66
2022/10/14 00:28:05;;;;;;;7.40;5.00;;;;;;;;;;5098192;28;20212;-66
2022/10/14 00:30:33;;;;;;;6.87;4.77;;;;;;;;;;5098181;28;20200;-65
2022/10/14 00:33:02;;;;;;;10.20;5.50;;;;;;;;;;5097534;28;20217;-65
2022/10/14 00:35:31;;;;;;;11.33;6.53;;;;;;;;;;5098058;28;20216;-66
2022/10/14 00:37:59;;;;;;;11.80;6.37;;;;;;;;;;5097837;28;20211;-65
2022/10/14 00:40:27;;;;;;;9.43;6.57;;;;;;;;;;5097790;28;20225;-65
2022/10/14 00:42:55;;;;;;;10.83;7.73;;;;;;;;;;5097788;28;20213;-65
2022/10/14 00:45:23;;;;;;;9.17;6.73;;;;;;;;;;5097942;28;20201;-65
2022/10/14 00:47:52;;;;;;;18.37;8.73;;;;;;;;;;5098089;28;20213;-65
2022/10/14 00:50:22;;;;;;;14.67;7.87;;;;;;;;;;5097209;28;20648;-64
2022/10/14 00:52:49;;;;;;;12.17;7.63;;;;;;;;;;5097420;28;20237;-64
2022/10/14 00:55:19;;;;;;;14.73;8.17;;;;;;;;;;5097745;28;20229;-66
2022/10/14 00:57:46;;;;;;;14.20;8.83;;;;;;;;;;5097416;28;20201;-65
2022/10/14 01:00:17;;;;;;;18.10;9.10;;;;;;;;;;5097522;28;20251;-66
2022/10/14 01:02:46;;;;;;;14.10;8.67;;;;;;;;;;5097401;28;20568;-65
2022/10/14 01:05:14;;;;;;;14.57;8.70;;;;;;;;;;5097345;28;20583;-65
2022/10/14 01:07:59;;;;;;;15.03;8.77;;;;;;;;;;5097808;28;20213;-67
2022/10/14 01:10:31;;;;;;;15.17;9.60;;;;;;;;;;5097929;28;20208;-65
2022/10/14 01:13:08;;;;;;;12.93;10.97;;;;;;;;;;5097526;28;20202;-66
2022/10/14 01:15:38;;;;;;;14.80;9.20;;;;;;;;;;5097347;28;20236;-66
2022/10/14 01:18:12;;;;;;;17.67;9.67;;;;;;;;;;5097192;28;20570;-66
2022/10/14 01:20:55;;;;;;;18.23;10.23;;;;;;;;;;5097544;28;20232;-64
2022/10/14 01:23:38;;;;;;;15.27;8.93;;;;;;;;;;5095279;28;20230;-66
2022/10/14 01:26:14;;;;;;;11.17;7.77;;;;;;;;;;5085633;28;20205;-64
2022/10/14 01:28:48;;;;;;;11.37;6.67;;;;;;;;;;5097767;28;20209;-66
2022/10/14 01:31:18;;;;;;;10.37;6.50;;;;;;;;;;5097619;28;20585;-66
2022/10/14 01:33:47;;;;;;;8.13;5.47;;;;;;;;;;5097143;28;20236;-65
2022/10/14 01:36:18;;;;;;;5.67;4.77;;;;;;;;;;5097533;28;20205;-66
2022/10/14 01:38:49;;;;;;;5.87;4.40;;;;;;;;;;5097446;28;20212;-65
2022/10/14 01:41:19;;;;;;;6.47;4.30;;;;;;;;;;5097424;28;20210;-66
2022/10/14 01:43:48;;;;;;;6.50;4.43;;;;;;;;;;5097045;28;20229;-66
2022/10/14 01:46:19;;;;;;;6.73;4.07;;;;;;;;;;5097229;28;20549;-66
2022/10/14 01:48:49;;;;;;;6.40;4.23;;;;;;;;;;5097044;28;20208;-66
2022/10/14 01:51:20;;;;;;;6.87;4.47;;;;;;;;;;5097342;28;20202;-66
2022/10/14 01:53:51;;;;;;;6.37;4.30;;;;;;;;;;5097056;28;20252;-65
2022/10/14 01:56:19;;;;;;;7.97;3.83;;;;;;;;;;5097222;28;20213;-66
2022/10/14 01:58:47;;;;;;;6.87;4.00;;;;;;;;;;5097089;28;20202;-64
2022/10/14 02:01:15;;;;;;;7.80;4.13;;;;;;;;;;5096907;28;20229;-66
2022/10/14 02:03:45;;;;;;;5.10;4.00;;;;;;;;;;5099561;28;20221;-65
2022/10/14 02:06:15;;;;;;;5.73;4.20;;;;;;;;;;5101111;28;20201;-64
2022/10/14 02:08:51;;;;;;;8.33;4.23;;;;;;;;;;5100808;28;20201;-64
2022/10/14 02:11:20;;;;;;;7.43;4.87;;;;;;;;;;5100711;28;20209;-65
2022/10/14 02:13:57;;;;;;;7.23;4.17;;;;;;;;;;5100636;28;20236;-65
2022/10/14 02:16:27;;;;;;;9.33;4.27;;;;;;;;;;5100749;28;20201;-65
2022/10/14 02:19:00;;;;;;;6.67;4.97;;;;;;;;;;5100340;28;20205;-65
2022/10/14 02:21:31;;;;;;;7.97;4.70;;;;;;;;;;5100342;28;20701;-66
2022/10/14 02:24:01;;;;;;;9.30;5.27;;;;;;;;;;5094540;28;20233;-65
2022/10/14 02:26:30;;;;;;;7.40;5.80;;;;;;;;;;5099211;28;20220;-66
2022/10/14 02:28:58;;;;;;;9.03;6.07;;;;;;;;;;5100554;28;20210;-66
2022/10/14 02:31:27;;;;;;;7.17;5.47;;;;;;;;;;5100113;28;20197;-65
2022/10/14 02:33:57;;;;;;;10.00;6.30;;;;;;;;;;5099875;28;20225;-66
2022/10/14 02:36:27;;;;;;;10.17;6.53;;;;;;;;;;5100370;28;20205;-66
2022/10/14 02:38:56;;;;;;;11.47;6.90;;;;;;;;;;5099767;28;20648;-65
2022/10/14 02:41:26;;;;;;;11.77;7.97;;;;;;;;;;5099778;28;20226;-65
2022/10/14 02:43:53;;;;;;;13.07;7.73;;;;;;;;;;5099545;28;20237;-66
2022/10/14 02:46:22;;;;;;;13.60;8.17;;;;;;;;;;5099945;28;20201;-65
2022/10/14 02:48:50;;;;;;;14.20;8.57;;;;;;;;;;5099469;28;20211;-65
2022/10/14 02:51:18;;;;;;;16.63;9.60;;;;;;;;;;5100026;28;20205;-65
2022/10/14 02:53:47;;;;;;;20.93;9.00;;;;;;;;;;5097706;28;20233;-65
2022/10/14 02:56:17;;;;;;;10.27;8.67;;;;;;;;;;5098688;28;20225;-65
2022/10/14 02:58:45;;;;;;;14.87;9.43;;;;;;;;;;5099714;28;20212;-65
2022/10/14 03:01:13;;;;;;;13.90;9.00;;;;;;;;;;5099671;28;20221;-65
2022/10/14 03:03:41;;;;;;;14.13;9.10;;;;;;;;;;5098923;28;20217;-66
2022/10/14 03:06:09;;;;;;;13.77;8.77;;;;;;;;;;5099618;28;20206;-65
2022/10/14 03:08:37;;;;;;;17.27;10.83;;;;;;;;;;5099764;28;20201;-65
2022/10/14 03:11:07;;;;;;;14.70;9.63;;;;;;;;;;5099373;28;20212;-65
2022/10/14 03:13:35;;;;;;;17.33;9.43;;;;;;;;;;5099270;28;20248;-65
2022/10/14 03:16:03;;;;;;;23.50;11.37;;;;;;;;;;5099294;28;20202;-65
2022/10/14 03:18:31;;;;;;;16.67;10.80;;;;;;;;;;5087571;28;20206;-64
2022/10/14 03:20:59;;;;;;;23.63;11.97;;;;;;;;;;5095035;28;20221;-65
2022/10/14 03:23:27;;;;;;;20.70;12.00;;;;;;;;;;5095174;28;20600;-64
2022/10/14 03:25:55;;;;;;;23.67;11.50;;;;;;;;;;5095164;28;20203;-65
2022/10/14 03:28:25;;;;;;;19.70;11.40;;;;;;;;;;5095233;28;20208;-65
2022/10/14 03:30:53;;;;;;;21.80;12.27;;;;;;;;;;5095360;28;20221;-65
2022/10/14 03:33:23;;;;;;;17.10;11.47;;;;;;;;;;5094855;28;20221;-66
2022/10/14 03:35:56;;;;;;;21.23;12.13;;;;;;;;;;5095564;28;20243;-65
2022/10/14 03:38:24;;;;;;;21.23;12.10;;;;;;;;;;5092296;28;20225;-65
2022/10/14 03:40:52;;;;;;;18.67;11.23;;;;;;;;;;5092439;28;20233;-65
2022/10/14 03:43:20;;;;;;;17.77;11.20;;;;;;;;;;5095273;28;20225;-65
2022/10/14 03:45:50;;;;;;;23.67;12.20;;;;;;;;;;5097419;28;20259;-65
2022/10/14 03:48:18;;;;;;;22.63;12.23;;;;;;;;;;5094241;28;20198;-65
2022/10/14 03:50:47;;;;;;;19.73;12.03;;;;;;;;;;5094788;28;20216;-64
2022/10/14 03:53:15;;;;;;;21.03;12.90;;;;;;;;;;5094353;28;20226;-65
2022/10/14 03:55:43;;;;;;;25.60;12.10;;;;;;;;;;5097372;28;20208;-64
2022/10/14 03:58:12;;;;;;;20.80;11.80;;;;;;;;;;5094042;28;20281;-64
2022/10/14 04:00:40;;;;;;;21.03;11.23;;;;;;;;;;5095180;28;20225;-64
2022/10/14 04:03:09;;;;;;;17.73;11.27;;;;;;;;;;5084355;28;20573;-64
2022/10/14 04:05:37;;;;;;;20.47;11.30;;;;;;;;;;5098632;28;20205;-64
2022/10/14 04:08:05;;;;;;;14.60;9.80;;;;;;;;;;5104205;28;20213;-64
2022/10/14 04:10:33;;;;;;;17.23;11.10;;;;;;;;;;5107446;28;20189;-65
2022/10/14 04:13:01;;;;;;;13.33;9.53;;;;;;;;;;5106814;28;20193;-64
2022/10/14 04:15:30;;;;;;;19.00;10.80;;;;;;;;;;5103725;28;20217;-64
2022/10/14 04:17:57;;;;;;;15.53;9.40;;;;;;;;;;5107906;28;20201;-64
2022/10/14 04:20:27;;;;;;;14.20;9.90;;;;;;;;;;5108612;28;20208;-65
2022/10/14 04:22:55;;;;;;;15.17;8.87;;;;;;;;;;5101976;28;20197;-64
2022/10/14 04:25:23;;;;;;;15.63;9.07;;;;;;;;;;5092583;28;20224;-65
2022/10/14 04:27:50;;;;;;;16.20;9.17;;;;;;;;;;5098137;28;20207;-65
2022/10/14 04:30:18;;;;;;;12.70;8.60;;;;;;;;;;5098233;28;20217;-65
2022/10/14 04:32:46;;;;;;;16.97;9.23;;;;;;;;;;5097889;28;20214;-65
2022/10/14 04:35:14;;;;;;;13.60;8.93;;;;;;;;;;5097645;28;20582;-65
2022/10/14 04:37:44;;;;;;;11.57;8.90;;;;;;;;;;5099531;28;20208;-65
2022/10/14 04:40:12;;;;;;;13.00;8.17;;;;;;;;;;5106579;28;20210;-65
2022/10/14 04:42:40;;;;;;;15.13;9.00;;;;;;;;;;5104626;28;20689;-65
2022/10/14 04:45:08;;;;;;;14.13;9.03;;;;;;;;;;5106808;28;20227;-64
2022/10/14 04:47:36;;;;;;;12.03;8.83;;;;;;;;;;5103225;28;20197;-65
2022/10/14 04:50:04;;;;;;;12.53;8.30;;;;;;;;;;5097397;28;20205;-64
2022/10/14 04:52:32;;;;;;;14.37;7.90;;;;;;;;;;5097833;28;20201;-63
2022/10/14 04:55:02;;;;;;;15.87;8.23;;;;;;;;;;5097623;28;20229;-63
2022/10/14 04:57:30;;;;;;;16.70;8.17;;;;;;;;;;5097550;28;20209;-63
2022/10/14 04:59:58;;;;;;;12.33;7.60;;;;;;;;;;5097853;28;20201;-63
2022/10/14 05:02:26;;;;;;;13.50;7.40;;;;;;;;;;5097656;28;20236;-63
2022/10/14 05:04:54;;;;;;;13.20;7.60;;;;;;;;;;5097156;28;20232;-63
2022/10/14 05:07:22;;;;;;;11.97;8.77;;;;;;;;;;5097695;28;20209;-64
2022/10/14 05:09:49;;;;;;;12.53;7.27;;;;;;;;;;5097493;28;20567;-63
2022/10/14 05:12:24;;;;;;;14.03;7.73;;;;;;;;;;5097313;28;20205;-64
2022/10/14 05:14:53;;;;;;;9.60;7.83;;;;;;;;;;5097560;28;20226;-63
2022/10/14 05:17:21;;;;;;;12.33;7.33;;;;;;;;;;5097539;28;20201;-64
2022/10/14 05:19:49;;;;;;;10.53;7.20;;;;;;;;;;5097044;28;20212;-64
2022/10/14 05:22:17;;;;;;;14.13;8.43;;;;;;;;;;5097432;28;20234;-64
2022/10/14 05:24:46;;;;;;;11.47;7.57;;;;;;;;;;5097444;28;20225;-64
2022/10/14 05:27:14;;;;;;;12.73;8.17;;;;;;;;;;5096651;28;20216;-64
2022/10/14 05:29:43;;;;;;;15.20;7.73;;;;;;;;;;5092194;28;20209;-66
2022/10/14 05:32:11;;;;;;;12.90;7.33;;;;;;;;;;5094256;28;20195;-66
2022/10/14 05:34:39;;;;;;;21.07;10.57;;;;;;;;;;5096519;28;20233;-66
2022/10/14 05:37:07;;;;;;;11.73;7.73;;;;;;;;;;5097431;28;20657;-65
2022/10/14 05:39:35;;;;;;;10.07;7.17;;;;;;;;;;5101011;28;20201;-66
2022/10/14 05:42:03;;;;;;;9.10;6.87;;;;;;;;;;5100947;28;20229;-66
2022/10/14 05:44:31;;;;;;;12.17;6.50;;;;;;;;;;5101320;28;20213;-66
2022/10/14 05:47:00;;;;;;;14.87;7.60;;;;;;;;;;5101055;28;20210;-66
2022/10/14 05:49:28;;;;;;;9.63;8.37;;;;;;;;;;5100540;28;20286;-65
2022/10/14 05:51:56;;;;;;;9.20;6.87;;;;;;;;;;5100748;28;20209;-66
2022/10/14 05:54:24;;;;;;;13.37;7.10;;;;;;;;;;5100682;28;20245;-67
2022/10/14 05:56:51;;;;;;;12.73;7.50;;;;;;;;;;5100790;28;20213;-66
2022/10/14 05:59:20;;;;;;;9.47;6.63;;;;;;;;;;5101117;28;20543;-66
2022/10/14 06:01:48;;;;;;;9.40;7.47;;;;;;;;;;5101216;28;20230;-66
2022/10/14 06:04:18;;;;;;;11.20;6.97;;;;;;;;;;5100616;28;20735;-66
2022/10/14 06:06:46;;;;;;;12.17;7.40;;;;;;;;;;5101092;28;20206;-65
2022/10/14 06:09:14;;;;;;;17.90;12.63;;;;;;;;;;5100574;28;20206;-66
2022/10/14 06:11:42;;;;;;;12.47;7.80;;;;;;;;;;5100856;28;20202;-65
2022/10/14 06:14:10;;;;;;;11.97;7.67;;;;;;;;;;5100263;28;20240;-66
2022/10/14 06:16:38;;;;;;;11.17;7.00;;;;;;;;;;5100545;28;20209;-66
2022/10/14 06:19:06;;;;;;;7.70;6.73;;;;;;;;;;5099946;28;20209;-66
2022/10/14 06:21:35;;;;;;;12.67;6.90;;;;;;;;;;5096681;28;20211;-66
2022/10/14 06:24:03;;;;;;;10.93;7.00;;;;;;;;;;5103443;28;20226;-66
2022/10/14 06:26:31;;;;;;;11.03;6.73;;;;;;;;;;5084983;28;20214;-66
2022/10/14 06:28:59;;;;;;;8.83;7.00;;;;;;;;;;5099124;28;20219;-65
2022/10/14 06:31:27;;;;;;;8.10;6.20;;;;;;;;;;5099965;28;20635;-65
2022/10/14 06:33:59;;;;;;;13.00;7.00;;;;;;;;;;5099506;28;20257;-65
2022/10/14 06:36:27;;;;;;;9.57;6.60;;;;;;;;;;5100150;28;20290;-65
2022/10/14 06:38:56;;;;;;;9.03;6.07;;;;;;;;;;5099661;28;20201;-66
2022/10/14 06:41:24;;;;;;;9.93;6.40;;;;;;;;;;5099693;28;20212;-65
2022/10/14 06:43:52;;;;;;;10.57;6.67;;;;;;;;;;5099662;28;20236;-66
2022/10/14 06:46:20;;;;;;;12.23;7.07;;;;;;;;;;5099570;28;20205;-65
2022/10/14 06:48:48;;;;;;;15.77;7.30;;;;;;;;;;5098918;28;20216;-65
2022/10/14 06:51:17;;;;;;;9.57;6.87;;;;;;;;;;5099860;28;20322;-65
2022/10/14 06:53:45;;;;;;;9.10;6.70;;;;;;;;;;5099665;28;20241;-66
2022/10/14 06:56:14;;;;;;;10.57;6.60;;;;;;;;;;5099586;28;20566;-66
2022/10/14 06:58:42;;;;;;;10.70;6.77;;;;;;;;;;5099905;28;20217;-66
2022/10/14 07:01:10;;;;;;;9.23;6.40;;;;;;;;;;5099698;28;20209;-65
2022/10/14 07:03:38;;;;;;;10.40;7.13;;;;;;;;;;5098872;28;20221;-65
2022/10/14 07:06:07;;;;;;;9.87;6.70;;;;;;;;;;5099400;28;20680;-65
2022/10/14 07:08:35;;;;;;;9.57;6.80;;;;;;;;;;5099599;28;20210;-66
2022/10/14 07:11:03;;;;;;;8.80;6.17;;;;;;;;;;5099759;28;20212;-66
2022/10/14 07:13:34;;;;;;;15.83;7.30;;;;;;;;;;5099422;28;20222;-65
2022/10/14 07:16:02;;;;;;;10.47;6.83;;;;;;;;;;5100197;28;20201;-65
2022/10/14 07:18:30;;;;;;;10.40;7.17;;;;;;;;;;5099085;28;20570;-65
2022/10/14 07:21:01;;;;;;;10.33;6.93;;;;;;;;;;5099376;28;20216;-65
2022/10/14 07:23:29;;;;;;;13.37;7.10;;;;;;;;;;5099731;28;20239;-65
2022/10/14 07:25:57;;;;;;;10.47;7.27;;;;;;;;;;5085438;28;20213;-66
2022/10/14 07:28:25;;;;;;;10.70;6.90;;;;;;;;;;5098957;28;20205;-65
2022/10/14 07:30:58;;;;;;;9.60;7.10;;;;;;;;;;5099115;28;20233;-65
2022/10/14 07:33:26;;;;;;;13.67;7.17;;;;;;;;;;5098754;28;20218;-65
2022/10/14 07:35:54;;;;;;;11.03;6.90;;;;;;;;;;5099135;28;20206;-65
2022/10/14 07:38:22;;;;;;;11.27;7.10;;;;;;;;;;5098952;28;20209;-66
2022/10/14 07:40:57;;;;;;;8.87;7.43;;;;;;;;;;5098978;28;20210;-65
2022/10/14 07:43:25;;;;;;;10.90;7.53;;;;;;;;;;5098620;28;20225;-65
2022/10/14 07:45:59;;;;;;;9.73;8.13;;;;;;;;;;5098879;28;20576;-65
2022/10/14 07:48:29;;;;;;;13.47;9.37;;;;;;;;;;5098581;28;20207;-65
2022/10/14 07:51:11;;;;;;;15.00;7.43;;;;;;;;;;5098548;28;20293;-65
2022/10/14 07:53:39;;;;;;;11.70;7.63;;;;;;;;;;5098388;28;20731;-66
2022/10/14 07:56:07;;;;;;;11.57;7.20;;;;;;;;;;5098666;28;20206;-65
2022/10/14 07:58:35;;;;;;;13.07;7.53;;;;;;;;;;5098641;28;20204;-65
2022/10/14 08:01:08;;;;;;;13.63;7.77;;;;;;;;;;5097796;28;20208;-66
2022/10/14 08:03:38;;;;;;;11.60;7.57;;;;;;;;;;5098210;28;20218;-66
2022/10/14 08:06:06;;;;;;;11.60;8.03;;;;;;;;;;5098506;28;20289;-65
2022/10/14 08:08:34;;;;;;;15.93;7.43;;;;;;;;;;5098261;28;20553;-66
2022/10/14 08:11:03;;;;;;;13.70;7.17;;;;;;;;;;5098157;28;20688;-65
2022/10/14 08:13:31;;;;;;;15.97;8.00;;;;;;;;;;5098380;28;20217;-66
2022/10/14 08:15:59;;;;;;;12.60;7.90;;;;;;;;;;5093495;28;20205;-65
2022/10/14 08:18:27;;;;;;;10.77;7.40;;;;;;;;;;5098093;28;20206;-66
2022/10/14 08:20:56;;;;;;;12.90;8.10;;;;;;;;;;5097856;28;20216;-66
2022/10/14 08:23:25;;;;;;;12.57;7.60;;;;;;;;;;5097674;28;20593;-66
2022/10/14 08:25:53;;;;;;;15.07;8.27;;;;;;;;;;5097882;28;20561;-66
2022/10/14 08:28:21;;;;;;;10.27;6.90;;;;;;;;;;5098127;28;20201;-66
2022/10/14 08:30:49;;;;;;;11.53;7.50;;;;;;;;;;5098166;28;20209;-66
2022/10/14 08:33:17;;;;;;;11.33;7.50;;;;;;;;;;5097470;28;20612;-65
2022/10/14 08:35:45;;;;;;;11.03;7.33;;;;;;;;;;5097947;28;20264;-66
2022/10/14 08:38:24;;;;;;;8.97;6.70;;;;;;;;;;5097981;28;20215;-66
2022/10/14 08:40:56;;;;;;;9.80;7.07;;;;;;;;;;5097820;28;20208;-66
2022/10/14 08:43:26;;;;;;;12.77;6.23;;;;;;;;;;5097754;28;20262;-65
2022/10/14 08:45:55;;;;;;;11.30;7.07;;;;;;;;;;5098071;28;20212;-66
2022/10/14 08:48:24;;;;;;;12.00;6.83;;;;;;;;;;5097269;28;20567;-66
2022/10/14 08:50:54;;;;;;;13.87;6.47;;;;;;;;;;5097711;28;20547;-66
2022/10/14 08:53:27;;;;;;;11.03;7.10;;;;;;;;;;5097425;28;20244;-65
2022/10/14 08:55:58;;;;;;;9.20;6.53;;;;;;;;;;5097667;28;20201;-65
2022/10/14 08:58:28;;;;;;;9.43;6.07;;;;;;;;;;5097543;28;20296;-65
2022/10/14 09:00:56;;;;;;;11.50;6.57;;;;;;;;;;5097702;28;20209;-66
2022/10/14 09:03:31;;;;;;;8.00;5.70;;;;;;;;;;5096892;28;20225;-66
2022/10/14 09:06:01;;;;;;;6.77;5.80;;;;;;;;;;5097366;28;20207;-66
2022/10/14 09:08:33;;;;;;;10.93;5.73;;;;;;;;;;5097568;28;20213;-66
2022/10/14 09:11:01;;;;;;;8.80;6.10;;;;;;;;;;5097729;28;20284;-66
2022/10/14 09:13:31;;;;;;;8.67;6.10;;;;;;;;;;5101514;28;20225;-66
2022/10/14 09:16:02;;;;;;;8.80;5.53;;;;;;;;;;5101299;28;20561;-66
2022/10/14 09:18:33;;;;;;;8.47;5.53;;;;;;;;;;5101223;28;20649;-66
2022/10/14 09:21:02;;;;;;;8.33;4.90;;;;;;;;;;5101630;28;20212;-66
2022/10/14 09:23:30;;;;;;;7.87;4.43;;;;;;;;;;5101183;28;20233;-66
2022/10/14 09:26:01;;;;;;;4.83;4.33;;;;;;;;;;5101587;28;20213;-66
2022/10/14 09:28:35;;;;;;;8.67;5.10;;;;;;;;;;5101310;28;20206;-66
2022/10/14 09:31:03;;;;;;;10.57;5.07;;;;;;;;;;5101577;28;20208;-66
2022/10/14 09:33:32;;;;;;;7.40;5.27;;;;;;;;;;5100989;28;20233;-66
2022/10/14 09:36:07;;;;;;;12.07;5.37;;;;;;;;;;5101230;28;20204;-66
2022/10/14 09:38:36;;;;;;;8.30;5.30;;;;;;;;;;5101336;28;20209;-66
2022/10/14 09:41:09;;;;;;;8.40;5.00;;;;;;;;;;5101096;28;20229;-66
2022/10/14 09:43:37;;;;;;;7.43;5.30;;;;;;;;;;5100834;28;20673;-66
2022/10/14 09:46:11;;;;;;;9.07;6.40;;;;;;;;;;5096484;28;20205;-66
2022/10/14 09:48:42;;;;;;;6.80;6.10;;;;;;;;;;5100863;28;20228;-66
2022/10/14 09:51:18;;;;;;;12.83;6.03;;;;;;;;;;5100907;28;20205;-66
2022/10/14 09:53:47;;;;;;;9.37;5.90;;;;;;;;;;5100710;28;20711;-66
2022/10/14 09:56:27;;;;;;;9.10;5.50;;;;;;;;;;5101061;28;20205;-66
2022/10/14 09:58:56;;;;;;;8.87;5.83;;;;;;;;;;5101052;28;20212;-66
2022/10/14 10:01:25;;;;;;;7.70;5.63;;;;;;;;;;5100894;28;20210;-66
2022/10/14 10:03:53;;;;;;;10.27;5.80;;;;;;;;;;5100256;28;20236;-66
2022/10/14 10:06:24;;;;;;;8.93;5.73;;;;;;;;;;5100534;28;20213;-66
2022/10/14 10:08:56;;;;;;;8.20;5.67;;;;;;;;;;5100465;28;20209;-66
2022/10/14 10:11:29;;;;;;;11.80;6.33;;;;;;;;;;5100472;28;20201;-63
2022/10/14 10:13:57;;;;;;;6.33;5.73;;;;;;;;;;5100609;28;20222;-63
2022/10/14 10:16:26;;;;;;;7.33;5.60;;;;;;;;;;5100469;28;20206;-64
2022/10/14 10:18:56;;;;;;;8.33;5.73;;;;;;;;;;5100095;28;20209;-64
2022/10/14 10:21:25;;;;;;;10.90;5.80;;;;;;;;;;5100701;28;20213;-64
2022/10/14 10:23:54;;;;;;;6.00;5.40;;;;;;;;;;5099418;28;20226;-64
2022/10/14 10:26:25;;;;;;;6.40;4.97;;;;;;;;;;5100217;28;20216;-64
2022/10/14 10:28:57;;;;;;;8.63;5.50;;;;;;;;;;5100486;28;20216;-63
2022/10/14 10:31:31;;;;;;;7.20;5.17;;;;;;;;;;5100455;28;20205;-64
2022/10/14 10:34:03;;;;;;;10.43;5.37;;;;;;;;;;5097172;28;20352;-63
2022/10/14 10:36:33;;;;;;;9.30;5.20;;;;;;;;;;5098688;28;20577;-64
2022/10/14 10:39:03;;;;;;;10.00;5.47;;;;;;;;;;5101597;28;20198;-65
2022/10/14 10:41:47;;;;;;;6.97;4.70;;;;;;;;;;5097987;28;20197;-65
2022/10/14 10:44:24;;;;;;;8.50;5.20;;;;;;;;;;5097909;28;20599;-65
2022/10/14 10:47:04;;;;;;;9.23;5.00;;;;;;;;;;5096849;28;20189;-65
2022/10/14 10:49:43;;;;;;;7.70;5.00;;;;;;;;;;5107950;28;20644;-64
2022/10/14 10:52:17;;;;;;;6.80;5.17;;;;;;;;;;5106605;28;20205;-64
2022/10/14 10:54:53;;;;;;;10.27;4.70;;;;;;;;;;5107543;28;20218;-65
2022/10/14 10:57:29;;;;;;;9.00;4.70;;;;;;;;;;5105827;28;20198;-65
2022/10/14 11:00:01;;;;;;;7.23;4.83;;;;;;;;;;5099886;27;20262;-65
2022/10/14 11:02:47;;;;;;;8.00;4.90;;;;;;;;;;5106783;28;20536;-66
2022/10/14 11:05:18;;;;;;;6.00;4.80;;;;;;;;;;5102790;28;20235;-65
2022/10/14 11:13:35;;;;;;;9.53;4.90;;;;;;;;;;5097221;28;20289;-65
2022/10/14 11:16:07;;;;;;;8.43;4.80;;;;;;;;;;5097524;28;20189;-64
2022/10/14 11:18:44;;;;;;;6.63;4.40;;;;;;;;;;5093233;28;20284;-64
2022/10/14 11:21:19;;;;;;;6.63;4.90;;;;;;;;;;5099370;28;20236;-64
2022/10/14 11:23:58;;;;;;;10.00;4.97;;;;;;;;;;5097351;28;20312;-64
2022/10/14 11:26:36;;;;;;;7.37;4.77;;;;;;;;;;5096400;28;20228;-65
2022/10/14 11:29:10;;;;;;;5.57;4.00;;;;;;;;;;5098848;28;20231;-64
2022/10/14 11:31:45;;;;;;;8.70;4.50;;;;;;;;;;5097502;28;20204;-65
2022/10/14 11:34:24;;;;;;;6.43;4.10;;;;;;;;;;5086146;28;20225;-65
2022/10/14 11:36:59;;;;;;;7.87;4.63;;;;;;;;;;5094974;28;20197;-65
2022/10/14 11:39:33;;;;;;;5.20;4.07;;;;;;;;;;5098260;28;20576;-65
2022/10/14 11:42:13;;;;;;;6.90;4.43;;;;;;;;;;5098367;28;20220;-63
2022/10/14 11:44:42;;;;;;;4.47;4.07;;;;;;;;;;5081218;28;20686;-65
2022/10/14 11:47:19;;;;;;;4.87;4.30;;;;;;;;;;5098834;28;20209;-64
2022/10/14 11:49:51;;;;;;;5.13;4.40;;;;;;;;;;5096817;28;20233;-64
2022/10/14 11:52:22;;;;;;;4.73;4.20;;;;;;;;;;5096715;28;20213;-64
2022/10/14 11:54:53;;;;;;;7.43;4.40;;;;;;;;;;5095893;28;20229;-64
2022/10/14 11:57:25;;;;;;;5.43;4.40;;;;;;;;;;5098983;28;20205;-63
2022/10/14 11:59:58;;;;;;;6.30;4.50;;;;;;;;;;5098428;28;20209;-64
2022/10/14 12:02:33;;;;;;;6.80;4.77;;;;;;;;;;5097183;28;20273;-63
2022/10/14 12:05:07;;;;;;;6.43;4.70;;;;;;;;;;5097457;28;20224;-63
2022/10/14 12:07:39;;;;;;;8.40;4.67;;;;;;;;;;5099444;28;20691;-63
2022/10/14 12:10:14;;;;;;;7.10;4.43;;;;;;;;;;5098258;28;20213;-63
2022/10/14 12:12:43;;;;;;;15.10;6.00;;;;;;;;;;5098056;28;20236;-64
2022/10/14 12:15:16;;;;;;;19.30;6.33;;;;;;;;;;5093757;28;20241;-64
2022/10/14 12:17:48;;;;;;;11.63;6.67;;;;;;;;;;5097312;28;20206;-64
2022/10/14 12:20:20;;;;;;;9.17;5.37;;;;;;;;;;5098555;28;20213;-65
2022/10/14 12:22:48;;;;;;;6.70;5.30;;;;;;;;;;5097637;28;20213;-64
2022/10/14 12:25:17;;;;;;;6.67;5.20;;;;;;;;;;5092176;28;20236;-64
2022/10/14 12:27:45;;;;;;;8.40;4.53;;;;;;;;;;5097148;28;20288;-64
2022/10/14 12:30:28;;;;;;;5.70;4.07;;;;;;;;;;5097756;28;20204;-65
2022/10/14 12:33:01;;;;;;;5.97;4.07;;;;;;;;;;5095377;28;20205;-64
2022/10/14 12:35:47;;;;;;;8.57;4.10;;;;;;;;;;5095635;28;20286;-64
2022/10/14 12:38:17;;;;;;;5.27;4.23;;;;;;;;;;5093480;28;20233;-63
2022/10/14 12:40:48;;;;;;;3.73;3.40;;;;;;;;;;5097222;28;20215;-63
2022/10/14 12:43:19;;;;;;;4.23;3.40;;;;;;;;;;5096894;28;20665;-62
2022/10/14 12:45:49;;;;;;;5.33;3.70;;;;;;;;;;5097184;28;20225;-64
2022/10/14 12:48:21;;;;;;;6.23;4.00;;;;;;;;;;5096868;28;20212;-63
2022/10/14 12:50:50;;;;;;;4.73;3.40;;;;;;;;;;5097466;28;20252;-63
2022/10/14 12:53:23;;;;;;;5.80;4.17;;;;;;;;;;5096898;28;20251;-63
2022/10/14 12:55:52;;;;;;;4.57;3.67;;;;;;;;;;5096729;28;20728;-63
2022/10/14 12:58:26;;;;;;;10.03;4.90;;;;;;;;;;5097057;28;20284;-63
2022/10/14 13:00:55;;;;;;;9.77;4.37;;;;;;;;;;5097041;28;20252;-63
2022/10/14 13:03:26;;;;;;;5.73;3.67;;;;;;;;;;5097018;28;20226;-63
2022/10/14 13:06:17;;;;;;;3.33;3.03;;;;;;;;;;5094335;28;20663;-63
2022/10/14 13:09:16;;;;;;;7.57;3.60;;;;;;;;;;5096890;28;20310;-63
2022/10/14 13:11:45;;;;;;;5.23;3.50;;;;;;;;;;5096791;28;20637;-63
2022/10/14 13:14:21;;;;;;;4.80;3.40;;;;;;;;;;5097384;28;20221;-64
2022/10/14 13:16:59;;;;;;;5.53;3.73;;;;;;;;;;5097197;28;20257;-63
2022/10/14 13:19:44;;;;;;;4.83;3.13;;;;;;;;;;5096957;28;20215;-64
2022/10/14 13:22:27;;;;;;;4.60;3.03;;;;;;;;;;5097062;28;20206;-63
2022/10/14 13:25:06;;;;;;;5.00;3.30;;;;;;;;;;5097087;28;20260;-63
2022/10/14 13:27:39;;;;;;;4.80;3.57;;;;;;;;;;5090680;28;20622;-64
2022/10/14 13:30:12;;;;;;;4.17;3.37;;;;;;;;;;5096890;28;20209;-63
2022/10/14 13:32:42;;;;;;;3.77;3.20;;;;;;;;;;5096771;28;20209;-64
2022/10/14 13:35:16;;;;;;;3.53;3.23;;;;;;;;;;5097172;28;20221;-64
2022/10/14 13:37:45;;;;;;;4.80;3.40;;;;;;;;;;5097317;28;20217;-63
2022/10/14 13:40:20;;;;;;;3.23;2.80;;;;;;;;;;5096561;28;20197;-63
2022/10/14 13:42:50;;;;;;;4.87;3.57;;;;;;;;;;5096734;28;20236;-63
2022/10/14 13:45:20;;;;;;;4.83;2.73;;;;;;;;;;5094664;28;20712;-64
2022/10/14 13:47:48;;;;;;;4.43;2.83;;;;;;;;;;5097114;28;20206;-63
2022/10/14 13:50:19;;;;;;;3.87;2.83;;;;;;;;;;5096979;28;20573;-63
2022/10/14 13:52:50;;;;;;;3.07;2.83;;;;;;;;;;5096968;28;20320;-63
2022/10/14 13:55:20;;;;;;;3.57;3.00;;;;;;;;;;5097168;28;20236;-64
2022/10/14 13:57:59;;;;;;;4.07;2.90;;;;;;;;;;5096787;28;20680;-64
2022/10/14 14:00:41;;;;;;;3.33;2.70;;;;;;;;;;5098541;28;20212;-65
2022/10/14 14:03:17;;;;;;;5.93;3.00;;;;;;;;;;5100419;28;20213;-64
2022/10/14 14:05:47;;;;;;;4.03;2.90;;;;;;;;;;5100320;28;20565;-63
2022/10/14 14:08:16;;;;;;;3.63;2.53;;;;;;;;;;5100290;28;20213;-63
2022/10/14 14:11:06;;;;;;;3.90;2.73;;;;;;;;;;5098940;28;20231;-64
2022/10/14 14:13:55;;;;;;;5.47;2.50;;;;;;;;;;5100097;28;20222;-64
2022/10/14 14:16:29;;;;;;;5.03;2.67;;;;;;;;;;5100122;28;20669;-64
2022/10/14 14:18:57;;;;;;;6.23;2.60;;;;;;;;;;5100284;28;20208;-64
2022/10/14 14:21:42;;;;;;;3.07;2.30;;;;;;;;;;5100477;28;20221;-63
2022/10/14 14:24:18;;;;;;;2.00;1.90;;;;;;;;;;5099796;28;20726;-64
2022/10/14 14:26:46;;;;;;;3.10;2.10;;;;;;;;;;5097274;28;20218;-63
2022/10/14 14:29:16;;;;;;;3.57;2.20;;;;;;;;;;5100548;28;20216;-64
2022/10/14 14:31:45;;;;;;;3.33;2.27;;;;;;;;;;5100405;28;20301;-64
2022/10/14 14:34:34;;;;;;;4.50;2.60;;;;;;;;;;5090757;28;20229;-63
2022/10/14 14:37:04;;;;;;;5.07;2.30;;;;;;;;;;5099653;28;20201;-63
2022/10/14 14:39:55;;;;;;;3.40;1.97;;;;;;;;;;5099563;28;20205;-64
2022/10/14 14:42:24;;;;;;;2.60;1.83;;;;;;;;;;5096570;28;20197;-64
2022/10/14 14:44:54;;;;;;;3.03;2.20;;;;;;;;;;5095785;28;20225;-64
2022/10/14 14:47:23;;;;;;;3.63;2.30;;;;;;;;;;5098948;28;20233;-64
2022/10/14 14:49:52;;;;;;;3.30;2.30;;;;;;;;;;5093867;28;20205;-64
2022/10/14 14:52:40;;;;;;;2.37;1.83;;;;;;;;;;5099492;28;20237;-64
2022/10/14 14:55:23;;;;;;;3.20;2.20;;;;;;;;;;5099709;28;20232;-64
2022/10/14 14:57:55;;;;;;;8.03;1.87;;;;;;;;;;5099556;28;20208;-64
2022/10/14 15:00:23;;;;;;;4.87;2.10;;;;;;;;;;5099310;28;20205;-63
2022/10/14 15:02:57;;;;;;;5.13;2.43;;;;;;;;;;5094104;28;20209;-64